sensor_id;sensor_type;location;lat;lon;timestamp;P1;durP1;ratioP1;P2;durP2;ratioP2
74328;SDS011;62745;51.060;13.786;2024-02-26T00:00:22;14.10;;;6.57;;
74328;SDS011;62745;51.060;13.786;2024-02-26T00:02:49;13.38;;;6.65;;
74328;SDS011;62745;51.060;13.786;2024-02-26T00:05:16;14.45;;;7.13;;
74328;SDS011;62745;51.060;13.786;2024-02-26T00:07:42;15.60;;;7.28;;
74328;SDS011;62745;51.060;13.786;2024-02-26T00:10:09;13.68;;;7.30;;
74328;SDS011;62745;51.060;13.786;2024-02-26T00:12:35;13.55;;;6.82;;
74328;SDS011;62745;51.060;13.786;2024-02-26T00:15:02;14.93;;;8.25;;
74328;SDS011;62745;51.060;13.786;2024-02-26T00:17:28;13.38;;;6.50;;
74328;SDS011;62745;51.060;13.786;2024-02-26T00:19:55;15.68;;;6.75;;
74328;SDS011;62745;51.060;13.786;2024-02-26T00:22:22;13.30;;;6.93;;
74328;SDS011;62745;51.060;13.786;2024-02-26T00:24:48;11.32;;;6.47;;
74328;SDS011;62745;51.060;13.786;2024-02-26T00:27:14;12.65;;;7.68;;
74328;SDS011;62745;51.060;13.786;2024-02-26T00:29:41;15.27;;;7.07;;
74328;SDS011;62745;51.060;13.786;2024-02-26T00:32:07;15.55;;;7.80;;
74328;SDS011;62745;51.060;13.786;2024-02-26T00:34:34;12.80;;;6.55;;
74328;SDS011;62745;51.060;13.786;2024-02-26T00:37:01;14.50;;;6.68;;
74328;SDS011;62745;51.060;13.786;2024-02-26T00:39:28;18.52;;;7.50;;
74328;SDS011;62745;51.060;13.786;2024-02-26T00:41:54;13.57;;;6.97;;
74328;SDS011;62745;51.060;13.786;2024-02-26T00:44:20;13.55;;;6.68;;
74328;SDS011;62745;51.060;13.786;2024-02-26T00:46:47;13.60;;;7.47;;
74328;SDS011;62745;51.060;13.786;2024-02-26T00:49:13;13.20;;;6.53;;
74328;SDS011;62745;51.060;13.786;2024-02-26T00:51:40;16.35;;;6.88;;
74328;SDS011;62745;51.060;13.786;2024-02-26T00:54:07;15.80;;;6.80;;
74328;SDS011;62745;51.060;13.786;2024-02-26T00:56:33;14.77;;;6.88;;
74328;SDS011;62745;51.060;13.786;2024-02-26T00:59:00;15.98;;;7.35;;
74328;SDS011;62745;51.060;13.786;2024-02-26T01:01:26;14.30;;;7.50;;
74328;SDS011;62745;51.060;13.786;2024-02-26T01:03:53;12.35;;;6.60;;
74328;SDS011;62745;51.060;13.786;2024-02-26T01:06:20;12.57;;;6.80;;
74328;SDS011;62745;51.060;13.786;2024-02-26T01:08:46;15.77;;;7.40;;
74328;SDS011;62745;51.060;13.786;2024-02-26T01:11:13;17.20;;;7.68;;
74328;SDS011;62745;51.060;13.786;2024-02-26T01:13:40;15.63;;;8.27;;
74328;SDS011;62745;51.060;13.786;2024-02-26T01:16:06;13.75;;;7.80;;
74328;SDS011;62745;51.060;13.786;2024-02-26T01:18:32;13.35;;;6.85;;
74328;SDS011;62745;51.060;13.786;2024-02-26T01:20:59;16.38;;;7.57;;
74328;SDS011;62745;51.060;13.786;2024-02-26T01:23:26;13.77;;;7.22;;
74328;SDS011;62745;51.060;13.786;2024-02-26T01:25:52;16.85;;;6.88;;
74328;SDS011;62745;51.060;13.786;2024-02-26T01:28:19;15.05;;;7.70;;
74328;SDS011;62745;51.060;13.786;2024-02-26T01:30:45;15.20;;;7.75;;
74328;SDS011;62745;51.060;13.786;2024-02-26T01:33:12;15.45;;;7.60;;
74328;SDS011;62745;51.060;13.786;2024-02-26T01:35:39;17.23;;;8.23;;
74328;SDS011;62745;51.060;13.786;2024-02-26T01:38:05;17.00;;;8.30;;
74328;SDS011;62745;51.060;13.786;2024-02-26T01:40:32;15.57;;;8.15;;
74328;SDS011;62745;51.060;13.786;2024-02-26T01:42:59;17.75;;;8.00;;
74328;SDS011;62745;51.060;13.786;2024-02-26T01:45:25;17.83;;;7.95;;
74328;SDS011;62745;51.060;13.786;2024-02-26T01:47:52;13.30;;;6.90;;
74328;SDS011;62745;51.060;13.786;2024-02-26T01:50:20;20.55;;;8.27;;
74328;SDS011;62745;51.060;13.786;2024-02-26T01:52:51;15.50;;;8.18;;
74328;SDS011;62745;51.060;13.786;2024-02-26T01:55:19;16.85;;;7.63;;
74328;SDS011;62745;51.060;13.786;2024-02-26T01:57:49;16.60;;;7.90;;
74328;SDS011;62745;51.060;13.786;2024-02-26T02:00:18;20.10;;;9.38;;
74328;SDS011;62745;51.060;13.786;2024-02-26T02:02:46;17.25;;;8.35;;
74328;SDS011;62745;51.060;13.786;2024-02-26T02:05:15;14.82;;;8.80;;
74328;SDS011;62745;51.060;13.786;2024-02-26T02:07:45;19.42;;;8.13;;
74328;SDS011;62745;51.060;13.786;2024-02-26T02:10:12;16.52;;;8.40;;
74328;SDS011;62745;51.060;13.786;2024-02-26T02:12:39;21.23;;;8.65;;
74328;SDS011;62745;51.060;13.786;2024-02-26T02:15:07;16.88;;;8.52;;
74328;SDS011;62745;51.060;13.786;2024-02-26T02:17:34;18.65;;;8.95;;
74328;SDS011;62745;51.060;13.786;2024-02-26T02:20:01;16.05;;;7.90;;
74328;SDS011;62745;51.060;13.786;2024-02-26T02:22:28;16.88;;;7.68;;
74328;SDS011;62745;51.060;13.786;2024-02-26T02:24:54;18.33;;;8.82;;
74328;SDS011;62745;51.060;13.786;2024-02-26T02:27:21;19.10;;;9.80;;
74328;SDS011;62745;51.060;13.786;2024-02-26T02:29:47;19.90;;;9.05;;
74328;SDS011;62745;51.060;13.786;2024-02-26T02:32:15;22.77;;;9.13;;
74328;SDS011;62745;51.060;13.786;2024-02-26T02:34:42;17.38;;;8.70;;
74328;SDS011;62745;51.060;13.786;2024-02-26T02:37:09;17.25;;;9.05;;
74328;SDS011;62745;51.060;13.786;2024-02-26T02:39:35;22.20;;;9.73;;
74328;SDS011;62745;51.060;13.786;2024-02-26T02:42:02;16.50;;;8.43;;
74328;SDS011;62745;51.060;13.786;2024-02-26T02:44:28;18.48;;;9.13;;
74328;SDS011;62745;51.060;13.786;2024-02-26T02:46:55;20.60;;;8.85;;
74328;SDS011;62745;51.060;13.786;2024-02-26T02:49:21;16.30;;;7.95;;
74328;SDS011;62745;51.060;13.786;2024-02-26T02:51:50;16.88;;;9.20;;
74328;SDS011;62745;51.060;13.786;2024-02-26T02:54:16;15.80;;;8.13;;
74328;SDS011;62745;51.060;13.786;2024-02-26T02:56:43;15.00;;;8.25;;
74328;SDS011;62745;51.060;13.786;2024-02-26T02:59:10;16.75;;;7.43;;
74328;SDS011;62745;51.060;13.786;2024-02-26T03:01:36;15.70;;;8.38;;
74328;SDS011;62745;51.060;13.786;2024-02-26T03:04:03;17.65;;;8.57;;
74328;SDS011;62745;51.060;13.786;2024-02-26T03:06:29;16.35;;;8.05;;
74328;SDS011;62745;51.060;13.786;2024-02-26T03:08:56;17.50;;;8.57;;
74328;SDS011;62745;51.060;13.786;2024-02-26T03:11:23;17.75;;;8.57;;
74328;SDS011;62745;51.060;13.786;2024-02-26T03:13:49;16.35;;;8.07;;
74328;SDS011;62745;51.060;13.786;2024-02-26T03:16:16;18.25;;;8.93;;
74328;SDS011;62745;51.060;13.786;2024-02-26T03:18:43;16.95;;;7.70;;
74328;SDS011;62745;51.060;13.786;2024-02-26T03:21:10;18.08;;;8.75;;
74328;SDS011;62745;51.060;13.786;2024-02-26T03:23:36;17.95;;;8.23;;
74328;SDS011;62745;51.060;13.786;2024-02-26T03:26:03;16.77;;;8.30;;
74328;SDS011;62745;51.060;13.786;2024-02-26T03:28:30;15.40;;;7.57;;
74328;SDS011;62745;51.060;13.786;2024-02-26T03:30:59;17.75;;;7.85;;
74328;SDS011;62745;51.060;13.786;2024-02-26T03:33:26;15.55;;;7.32;;
74328;SDS011;62745;51.060;13.786;2024-02-26T03:35:55;14.32;;;7.35;;
74328;SDS011;62745;51.060;13.786;2024-02-26T03:38:22;14.05;;;7.57;;
74328;SDS011;62745;51.060;13.786;2024-02-26T03:40:48;17.27;;;7.75;;
74328;SDS011;62745;51.060;13.786;2024-02-26T03:43:16;14.40;;;7.85;;
74328;SDS011;62745;51.060;13.786;2024-02-26T03:45:43;15.40;;;7.35;;
74328;SDS011;62745;51.060;13.786;2024-02-26T03:48:09;14.80;;;7.05;;
74328;SDS011;62745;51.060;13.786;2024-02-26T03:50:36;16.17;;;6.68;;
74328;SDS011;62745;51.060;13.786;2024-02-26T03:53:02;13.95;;;8.52;;
74328;SDS011;62745;51.060;13.786;2024-02-26T03:55:29;15.95;;;7.97;;
74328;SDS011;62745;51.060;13.786;2024-02-26T03:57:55;15.25;;;7.05;;
74328;SDS011;62745;51.060;13.786;2024-02-26T04:00:22;15.88;;;7.43;;
74328;SDS011;62745;51.060;13.786;2024-02-26T04:02:49;15.00;;;6.60;;
74328;SDS011;62745;51.060;13.786;2024-02-26T04:05:15;14.63;;;7.35;;
74328;SDS011;62745;51.060;13.786;2024-02-26T04:07:42;14.18;;;7.10;;
74328;SDS011;62745;51.060;13.786;2024-02-26T04:10:09;13.63;;;6.93;;
74328;SDS011;62745;51.060;13.786;2024-02-26T04:12:40;14.70;;;6.70;;
74328;SDS011;62745;51.060;13.786;2024-02-26T04:15:10;16.45;;;7.80;;
74328;SDS011;62745;51.060;13.786;2024-02-26T04:17:37;14.35;;;7.05;;
74328;SDS011;62745;51.060;13.786;2024-02-26T04:20:05;13.35;;;6.45;;
74328;SDS011;62745;51.060;13.786;2024-02-26T04:22:32;14.27;;;6.97;;
74328;SDS011;62745;51.060;13.786;2024-02-26T04:24:59;13.55;;;6.85;;
74328;SDS011;62745;51.060;13.786;2024-02-26T04:27:25;13.85;;;6.55;;
74328;SDS011;62745;51.060;13.786;2024-02-26T04:29:52;16.52;;;6.40;;
74328;SDS011;62745;51.060;13.786;2024-02-26T04:32:18;17.25;;;7.40;;
74328;SDS011;62745;51.060;13.786;2024-02-26T04:34:45;13.57;;;6.53;;
74328;SDS011;62745;51.060;13.786;2024-02-26T04:37:11;13.70;;;6.47;;
74328;SDS011;62745;51.060;13.786;2024-02-26T04:39:38;16.00;;;7.68;;
74328;SDS011;62745;51.060;13.786;2024-02-26T04:42:04;17.15;;;7.63;;
74328;SDS011;62745;51.060;13.786;2024-02-26T04:44:31;15.90;;;7.03;;
74328;SDS011;62745;51.060;13.786;2024-02-26T04:46:58;13.63;;;6.78;;
74328;SDS011;62745;51.060;13.786;2024-02-26T04:49:24;17.75;;;7.13;;
74328;SDS011;62745;51.060;13.786;2024-02-26T04:51:51;17.55;;;7.32;;
74328;SDS011;62745;51.060;13.786;2024-02-26T04:54:17;15.40;;;7.05;;
74328;SDS011;62745;51.060;13.786;2024-02-26T04:56:44;15.00;;;7.63;;
74328;SDS011;62745;51.060;13.786;2024-02-26T04:59:10;16.85;;;7.57;;
74328;SDS011;62745;51.060;13.786;2024-02-26T05:01:37;21.65;;;10.50;;
74328;SDS011;62745;51.060;13.786;2024-02-26T05:04:04;19.63;;;8.40;;
74328;SDS011;62745;51.060;13.786;2024-02-26T05:06:31;20.35;;;9.52;;
74328;SDS011;62745;51.060;13.786;2024-02-26T05:08:58;18.83;;;8.60;;
74328;SDS011;62745;51.060;13.786;2024-02-26T05:11:24;19.20;;;9.05;;
74328;SDS011;62745;51.060;13.786;2024-02-26T05:13:51;22.48;;;10.20;;
74328;SDS011;62745;51.060;13.786;2024-02-26T05:16:17;18.20;;;7.72;;
74328;SDS011;62745;51.060;13.786;2024-02-26T05:18:46;18.45;;;8.35;;
74328;SDS011;62745;51.060;13.786;2024-02-26T05:21:13;16.38;;;8.07;;
74328;SDS011;62745;51.060;13.786;2024-02-26T05:23:40;21.40;;;8.52;;
74328;SDS011;62745;51.060;13.786;2024-02-26T05:26:06;18.40;;;8.35;;
74328;SDS011;62745;51.060;13.786;2024-02-26T05:28:33;20.92;;;9.02;;
74328;SDS011;62745;51.060;13.786;2024-02-26T05:30:59;19.25;;;9.45;;
74328;SDS011;62745;51.060;13.786;2024-02-26T05:33:26;21.90;;;9.23;;
74328;SDS011;62745;51.060;13.786;2024-02-26T05:35:53;19.65;;;8.70;;
74328;SDS011;62745;51.060;13.786;2024-02-26T05:38:19;24.30;;;8.77;;
74328;SDS011;62745;51.060;13.786;2024-02-26T05:40:46;19.30;;;8.80;;
74328;SDS011;62745;51.060;13.786;2024-02-26T05:43:13;19.35;;;8.43;;
74328;SDS011;62745;51.060;13.786;2024-02-26T05:45:41;18.95;;;7.88;;
74328;SDS011;62745;51.060;13.786;2024-02-26T05:48:08;17.23;;;6.78;;
74328;SDS011;62745;51.060;13.786;2024-02-26T05:50:34;16.98;;;7.97;;
74328;SDS011;62745;51.060;13.786;2024-02-26T05:53:01;15.65;;;8.35;;
74328;SDS011;62745;51.060;13.786;2024-02-26T05:55:27;19.38;;;8.25;;
74328;SDS011;62745;51.060;13.786;2024-02-26T05:57:54;20.60;;;8.23;;
74328;SDS011;62745;51.060;13.786;2024-02-26T06:00:20;15.45;;;7.93;;
74328;SDS011;62745;51.060;13.786;2024-02-26T06:02:47;13.80;;;7.70;;
74328;SDS011;62745;51.060;13.786;2024-02-26T06:05:13;16.58;;;8.45;;
74328;SDS011;62745;51.060;13.786;2024-02-26T06:07:40;17.58;;;8.60;;
74328;SDS011;62745;51.060;13.786;2024-02-26T06:10:07;18.95;;;8.93;;
74328;SDS011;62745;51.060;13.786;2024-02-26T06:12:36;17.65;;;8.73;;
74328;SDS011;62745;51.060;13.786;2024-02-26T06:15:03;16.17;;;7.80;;
74328;SDS011;62745;51.060;13.786;2024-02-26T06:17:30;17.60;;;7.63;;
74328;SDS011;62745;51.060;13.786;2024-02-26T06:19:57;18.42;;;9.05;;
74328;SDS011;62745;51.060;13.786;2024-02-26T06:22:26;18.63;;;9.07;;
74328;SDS011;62745;51.060;13.786;2024-02-26T06:24:53;15.25;;;7.72;;
74328;SDS011;62745;51.060;13.786;2024-02-26T06:27:19;16.92;;;7.05;;
74328;SDS011;62745;51.060;13.786;2024-02-26T06:29:47;16.38;;;7.90;;
74328;SDS011;62745;51.060;13.786;2024-02-26T06:32:14;16.10;;;7.85;;
74328;SDS011;62745;51.060;13.786;2024-02-26T06:34:40;15.68;;;7.57;;
74328;SDS011;62745;51.060;13.786;2024-02-26T06:37:08;17.00;;;8.13;;
74328;SDS011;62745;51.060;13.786;2024-02-26T06:39:34;16.40;;;8.90;;
74328;SDS011;62745;51.060;13.786;2024-02-26T06:42:01;19.35;;;7.95;;
74328;SDS011;62745;51.060;13.786;2024-02-26T06:44:28;14.88;;;7.80;;
74328;SDS011;62745;51.060;13.786;2024-02-26T06:47:00;22.27;;;8.48;;
74328;SDS011;62745;51.060;13.786;2024-02-26T06:49:27;16.20;;;8.35;;
74328;SDS011;62745;51.060;13.786;2024-02-26T06:51:54;17.02;;;7.55;;
74328;SDS011;62745;51.060;13.786;2024-02-26T06:54:21;18.67;;;7.93;;
74328;SDS011;62745;51.060;13.786;2024-02-26T06:56:54;15.40;;;7.38;;
74328;SDS011;62745;51.060;13.786;2024-02-26T06:59:21;18.55;;;7.82;;
74328;SDS011;62745;51.060;13.786;2024-02-26T07:01:50;18.17;;;7.75;;
74328;SDS011;62745;51.060;13.786;2024-02-26T07:04:17;14.55;;;7.07;;
74328;SDS011;62745;51.060;13.786;2024-02-26T07:06:44;19.00;;;8.82;;
74328;SDS011;62745;51.060;13.786;2024-02-26T07:09:20;15.27;;;7.53;;
74328;SDS011;62745;51.060;13.786;2024-02-26T07:11:55;13.93;;;7.25;;
74328;SDS011;62745;51.060;13.786;2024-02-26T07:14:33;18.23;;;7.63;;
74328;SDS011;62745;51.060;13.786;2024-02-26T07:17:06;16.33;;;8.23;;
74328;SDS011;62745;51.060;13.786;2024-02-26T07:19:41;19.45;;;9.20;;
74328;SDS011;62745;51.060;13.786;2024-02-26T07:22:18;16.58;;;7.88;;
74328;SDS011;62745;51.060;13.786;2024-02-26T07:24:50;15.02;;;8.30;;
74328;SDS011;62745;51.060;13.786;2024-02-26T07:27:38;17.63;;;8.00;;
74328;SDS011;62745;51.060;13.786;2024-02-26T07:30:20;13.77;;;7.57;;
74328;SDS011;62745;51.060;13.786;2024-02-26T07:32:46;16.40;;;8.20;;
74328;SDS011;62745;51.060;13.786;2024-02-26T07:35:17;17.48;;;8.02;;
74328;SDS011;62745;51.060;13.786;2024-02-26T07:37:47;18.05;;;9.55;;
74328;SDS011;62745;51.060;13.786;2024-02-26T07:40:30;17.35;;;8.88;;
74328;SDS011;62745;51.060;13.786;2024-02-26T07:43:03;16.70;;;8.23;;
74328;SDS011;62745;51.060;13.786;2024-02-26T07:45:30;15.73;;;8.43;;
74328;SDS011;62745;51.060;13.786;2024-02-26T07:48:01;16.17;;;8.52;;
74328;SDS011;62745;51.060;13.786;2024-02-26T07:50:28;16.90;;;8.45;;
74328;SDS011;62745;51.060;13.786;2024-02-26T07:53:06;16.73;;;8.75;;
74328;SDS011;62745;51.060;13.786;2024-02-26T07:55:36;18.73;;;8.52;;
74328;SDS011;62745;51.060;13.786;2024-02-26T07:58:09;16.75;;;8.30;;
74328;SDS011;62745;51.060;13.786;2024-02-26T08:00:38;18.67;;;8.02;;
74328;SDS011;62745;51.060;13.786;2024-02-26T08:03:07;13.43;;;7.43;;
74328;SDS011;62745;51.060;13.786;2024-02-26T08:05:34;15.48;;;6.88;;
74328;SDS011;62745;51.060;13.786;2024-02-26T08:08:01;16.92;;;7.18;;
74328;SDS011;62745;51.060;13.786;2024-02-26T08:10:27;15.93;;;7.05;;
74328;SDS011;62745;51.060;13.786;2024-02-26T08:12:58;15.50;;;6.57;;
74328;SDS011;62745;51.060;13.786;2024-02-26T08:15:31;13.48;;;6.05;;
74328;SDS011;62745;51.060;13.786;2024-02-26T08:18:03;12.23;;;5.68;;
74328;SDS011;62745;51.060;13.786;2024-02-26T08:20:32;13.75;;;7.00;;
74328;SDS011;62745;51.060;13.786;2024-02-26T08:22:59;11.95;;;5.57;;
74328;SDS011;62745;51.060;13.786;2024-02-26T08:25:26;13.20;;;6.28;;
74328;SDS011;62745;51.060;13.786;2024-02-26T08:27:55;14.18;;;6.22;;
74328;SDS011;62745;51.060;13.786;2024-02-26T08:30:22;14.43;;;6.13;;
74328;SDS011;62745;51.060;13.786;2024-02-26T08:32:51;14.18;;;6.10;;
74328;SDS011;62745;51.060;13.786;2024-02-26T08:35:20;11.43;;;5.75;;
74328;SDS011;62745;51.060;13.786;2024-02-26T08:37:47;14.00;;;6.22;;
74328;SDS011;62745;51.060;13.786;2024-02-26T08:40:14;13.93;;;5.35;;
74328;SDS011;62745;51.060;13.786;2024-02-26T08:42:41;10.75;;;4.90;;
74328;SDS011;62745;51.060;13.786;2024-02-26T08:45:08;10.43;;;5.07;;
74328;SDS011;62745;51.060;13.786;2024-02-26T08:47:38;10.38;;;4.68;;
74328;SDS011;62745;51.060;13.786;2024-02-26T08:50:05;12.55;;;5.88;;
74328;SDS011;62745;51.060;13.786;2024-02-26T08:55:07;9.20;;;5.00;;
74328;SDS011;62745;51.060;13.786;2024-02-26T08:57:35;11.18;;;5.15;;
74328;SDS011;62745;51.060;13.786;2024-02-26T09:00:07;13.00;;;5.93;;
74328;SDS011;62745;51.060;13.786;2024-02-26T09:02:40;9.02;;;4.40;;
74328;SDS011;62745;51.060;13.786;2024-02-26T09:05:13;11.85;;;5.63;;
74328;SDS011;62745;51.060;13.786;2024-02-26T09:07:39;9.93;;;4.82;;
74328;SDS011;62745;51.060;13.786;2024-02-26T09:10:06;13.85;;;6.00;;
74328;SDS011;62745;51.060;13.786;2024-02-26T09:12:37;13.40;;;5.80;;
74328;SDS011;62745;51.060;13.786;2024-02-26T09:15:06;10.60;;;5.15;;
74328;SDS011;62745;51.060;13.786;2024-02-26T09:17:36;10.73;;;5.70;;
74328;SDS011;62745;51.060;13.786;2024-02-26T09:20:04;12.60;;;5.60;;
74328;SDS011;62745;51.060;13.786;2024-02-26T09:22:32;11.30;;;5.00;;
74328;SDS011;62745;51.060;13.786;2024-02-26T09:24:58;11.73;;;4.63;;
74328;SDS011;62745;51.060;13.786;2024-02-26T09:27:25;11.98;;;5.68;;
74328;SDS011;62745;51.060;13.786;2024-02-26T09:29:59;8.20;;;4.30;;
74328;SDS011;62745;51.060;13.786;2024-02-26T09:32:25;12.95;;;6.30;;
74328;SDS011;62745;51.060;13.786;2024-02-26T09:34:52;10.63;;;5.63;;
74328;SDS011;62745;51.060;13.786;2024-02-26T09:37:20;8.38;;;4.13;;
74328;SDS011;62745;51.060;13.786;2024-02-26T09:39:47;11.43;;;5.03;;
74328;SDS011;62745;51.060;13.786;2024-02-26T09:42:14;9.35;;;5.13;;
74328;SDS011;62745;51.060;13.786;2024-02-26T09:44:45;11.20;;;5.35;;
74328;SDS011;62745;51.060;13.786;2024-02-26T09:47:14;11.68;;;5.57;;
74328;SDS011;62745;51.060;13.786;2024-02-26T09:49:43;11.43;;;5.65;;
74328;SDS011;62745;51.060;13.786;2024-02-26T09:52:18;12.73;;;5.93;;
74328;SDS011;62745;51.060;13.786;2024-02-26T09:54:51;10.30;;;5.13;;
74328;SDS011;62745;51.060;13.786;2024-02-26T09:57:21;10.93;;;5.22;;
74328;SDS011;62745;51.060;13.786;2024-02-26T09:59:51;10.38;;;5.82;;
74328;SDS011;62745;51.060;13.786;2024-02-26T10:02:20;9.15;;;4.60;;
74328;SDS011;62745;51.060;13.786;2024-02-26T10:04:49;10.70;;;5.72;;
74328;SDS011;62745;51.060;13.786;2024-02-26T10:07:18;11.10;;;5.32;;
74328;SDS011;62745;51.060;13.786;2024-02-26T10:09:47;11.40;;;5.15;;
74328;SDS011;62745;51.060;13.786;2024-02-26T10:12:13;10.05;;;5.13;;
74328;SDS011;62745;51.060;13.786;2024-02-26T10:14:44;13.27;;;4.78;;
74328;SDS011;62745;51.060;13.786;2024-02-26T10:17:13;8.98;;;4.68;;
74328;SDS011;62745;51.060;13.786;2024-02-26T10:19:39;10.10;;;5.05;;
74328;SDS011;62745;51.060;13.786;2024-02-26T10:22:06;10.68;;;4.68;;
74328;SDS011;62745;51.060;13.786;2024-02-26T10:24:33;8.77;;;5.00;;
74328;SDS011;62745;51.060;13.786;2024-02-26T10:27:01;11.95;;;5.43;;
74328;SDS011;62745;51.060;13.786;2024-02-26T10:29:28;9.60;;;4.65;;
74328;SDS011;62745;51.060;13.786;2024-02-26T10:31:55;9.90;;;4.72;;
74328;SDS011;62745;51.060;13.786;2024-02-26T10:34:22;10.15;;;5.05;;
74328;SDS011;62745;51.060;13.786;2024-02-26T10:36:49;10.18;;;5.43;;
74328;SDS011;62745;51.060;13.786;2024-02-26T10:39:20;9.15;;;4.97;;
74328;SDS011;62745;51.060;13.786;2024-02-26T10:41:48;10.18;;;5.00;;
74328;SDS011;62745;51.060;13.786;2024-02-26T10:44:14;8.57;;;4.95;;
74328;SDS011;62745;51.060;13.786;2024-02-26T10:46:44;9.07;;;5.03;;
74328;SDS011;62745;51.060;13.786;2024-02-26T10:49:14;9.43;;;4.80;;
74328;SDS011;62745;51.060;13.786;2024-02-26T10:51:45;9.93;;;5.43;;
74328;SDS011;62745;51.060;13.786;2024-02-26T10:54:17;11.82;;;3.83;;
74328;SDS011;62745;51.060;13.786;2024-02-26T10:56:47;8.35;;;3.95;;
74328;SDS011;62745;51.060;13.786;2024-02-26T10:59:16;8.43;;;4.47;;
74328;SDS011;62745;51.060;13.786;2024-02-26T11:01:47;13.23;;;4.50;;
74328;SDS011;62745;51.060;13.786;2024-02-26T11:04:16;10.15;;;4.70;;
74328;SDS011;62745;51.060;13.786;2024-02-26T11:06:44;10.32;;;4.40;;
74328;SDS011;62745;51.060;13.786;2024-02-26T11:09:12;8.60;;;4.53;;
74328;SDS011;62745;51.060;13.786;2024-02-26T11:11:40;9.43;;;4.57;;
74328;SDS011;62745;51.060;13.786;2024-02-26T11:14:08;8.20;;;4.40;;
74328;SDS011;62745;51.060;13.786;2024-02-26T11:16:39;7.70;;;3.67;;
74328;SDS011;62745;51.060;13.786;2024-02-26T11:19:09;9.40;;;4.32;;
74328;SDS011;62745;51.060;13.786;2024-02-26T11:21:38;9.15;;;5.38;;
74328;SDS011;62745;51.060;13.786;2024-02-26T11:24:07;7.30;;;4.13;;
74328;SDS011;62745;51.060;13.786;2024-02-26T11:26:42;9.60;;;4.55;;
74328;SDS011;62745;51.060;13.786;2024-02-26T11:29:20;10.32;;;4.43;;
74328;SDS011;62745;51.060;13.786;2024-02-26T11:31:48;8.73;;;4.93;;
74328;SDS011;62745;51.060;13.786;2024-02-26T11:34:16;9.60;;;5.57;;
74328;SDS011;62745;51.060;13.786;2024-02-26T11:36:44;9.13;;;5.47;;
74328;SDS011;62745;51.060;13.786;2024-02-26T11:39:13;10.68;;;4.60;;
74328;SDS011;62745;51.060;13.786;2024-02-26T11:41:46;9.02;;;4.88;;
74328;SDS011;62745;51.060;13.786;2024-02-26T11:44:13;9.13;;;5.13;;
74328;SDS011;62745;51.060;13.786;2024-02-26T11:46:40;9.98;;;4.82;;
74328;SDS011;62745;51.060;13.786;2024-02-26T11:51:55;7.93;;;5.10;;
74328;SDS011;62745;51.060;13.786;2024-02-26T11:54:49;9.77;;;4.47;;
74328;SDS011;62745;51.060;13.786;2024-02-26T12:00:19;9.80;;;4.30;;
74328;SDS011;62745;51.060;13.786;2024-02-26T12:02:51;9.05;;;4.82;;
74328;SDS011;62745;51.060;13.786;2024-02-26T12:05:30;9.75;;;5.00;;
74328;SDS011;62745;51.060;13.786;2024-02-26T12:08:05;9.30;;;4.65;;
74328;SDS011;62745;51.060;13.786;2024-02-26T12:10:38;9.80;;;4.50;;
74328;SDS011;62745;51.060;13.786;2024-02-26T12:13:17;12.18;;;4.80;;
74328;SDS011;62745;51.060;13.786;2024-02-26T12:18:25;9.80;;;5.18;;
74328;SDS011;62745;51.060;13.786;2024-02-26T12:20:59;10.95;;;4.43;;
74328;SDS011;62745;51.060;13.786;2024-02-26T12:23:30;10.15;;;4.85;;
74328;SDS011;62745;51.060;13.786;2024-02-26T12:26:00;10.10;;;4.13;;
74328;SDS011;62745;51.060;13.786;2024-02-26T12:28:32;9.48;;;4.45;;
74328;SDS011;62745;51.060;13.786;2024-02-26T12:30:59;10.70;;;5.10;;
74328;SDS011;62745;51.060;13.786;2024-02-26T12:33:27;9.48;;;4.60;;
74328;SDS011;62745;51.060;13.786;2024-02-26T12:36:02;7.90;;;4.95;;
74328;SDS011;62745;51.060;13.786;2024-02-26T12:38:29;8.77;;;5.10;;
74328;SDS011;62745;51.060;13.786;2024-02-26T12:40:57;10.43;;;4.25;;
74328;SDS011;62745;51.060;13.786;2024-02-26T12:43:25;7.65;;;4.32;;
74328;SDS011;62745;51.060;13.786;2024-02-26T12:45:52;8.90;;;4.75;;
74328;SDS011;62745;51.060;13.786;2024-02-26T12:48:21;8.70;;;5.25;;
74328;SDS011;62745;51.060;13.786;2024-02-26T12:50:49;9.40;;;4.60;;
74328;SDS011;62745;51.060;13.786;2024-02-26T12:53:16;9.45;;;4.38;;
74328;SDS011;62745;51.060;13.786;2024-02-26T12:55:42;10.02;;;4.85;;
74328;SDS011;62745;51.060;13.786;2024-02-26T12:58:09;8.25;;;4.57;;
74328;SDS011;62745;51.060;13.786;2024-02-26T13:00:37;10.02;;;5.15;;
74328;SDS011;62745;51.060;13.786;2024-02-26T13:03:04;8.35;;;4.75;;
74328;SDS011;62745;51.060;13.786;2024-02-26T13:05:31;8.43;;;4.95;;
74328;SDS011;62745;51.060;13.786;2024-02-26T13:07:59;8.30;;;4.32;;
74328;SDS011;62745;51.060;13.786;2024-02-26T13:10:25;8.38;;;4.30;;
74328;SDS011;62745;51.060;13.786;2024-02-26T13:12:56;8.13;;;4.72;;
74328;SDS011;62745;51.060;13.786;2024-02-26T13:15:23;8.95;;;4.95;;
74328;SDS011;62745;51.060;13.786;2024-02-26T13:17:52;9.52;;;4.22;;
74328;SDS011;62745;51.060;13.786;2024-02-26T13:20:26;10.68;;;4.38;;
74328;SDS011;62745;51.060;13.786;2024-02-26T13:23:04;10.13;;;4.22;;
74328;SDS011;62745;51.060;13.786;2024-02-26T13:25:35;7.55;;;3.92;;
74328;SDS011;62745;51.060;13.786;2024-02-26T13:28:17;10.63;;;3.80;;
74328;SDS011;62745;51.060;13.786;2024-02-26T13:30:54;7.43;;;3.63;;
74328;SDS011;62745;51.060;13.786;2024-02-26T13:33:25;9.73;;;4.28;;
74328;SDS011;62745;51.060;13.786;2024-02-26T13:35:54;7.70;;;3.78;;
74328;SDS011;62745;51.060;13.786;2024-02-26T13:38:24;9.20;;;4.22;;
74328;SDS011;62745;51.060;13.786;2024-02-26T13:43:21;8.15;;;3.65;;
74328;SDS011;62745;51.060;13.786;2024-02-26T13:48:15;6.97;;;3.70;;
74328;SDS011;62745;51.060;13.786;2024-02-26T13:50:45;7.53;;;3.85;;
74328;SDS011;62745;51.060;13.786;2024-02-26T13:53:13;8.95;;;4.05;;
74328;SDS011;62745;51.060;13.786;2024-02-26T13:55:40;7.70;;;3.97;;
74328;SDS011;62745;51.060;13.786;2024-02-26T13:58:09;8.18;;;3.97;;
74328;SDS011;62745;51.060;13.786;2024-02-26T14:00:38;7.85;;;4.30;;
74328;SDS011;62745;51.060;13.786;2024-02-26T14:03:05;7.30;;;3.67;;
74328;SDS011;62745;51.060;13.786;2024-02-26T14:05:32;7.78;;;3.63;;
74328;SDS011;62745;51.060;13.786;2024-02-26T14:07:58;8.60;;;3.88;;
74328;SDS011;62745;51.060;13.786;2024-02-26T14:10:25;6.60;;;3.72;;
74328;SDS011;62745;51.060;13.786;2024-02-26T14:12:52;8.77;;;4.13;;
74328;SDS011;62745;51.060;13.786;2024-02-26T14:15:19;8.95;;;4.07;;
74328;SDS011;62745;51.060;13.786;2024-02-26T14:17:46;7.47;;;3.88;;
74328;SDS011;62745;51.060;13.786;2024-02-26T14:20:21;7.05;;;4.03;;
74328;SDS011;62745;51.060;13.786;2024-02-26T14:22:49;9.85;;;4.60;;
74328;SDS011;62745;51.060;13.786;2024-02-26T14:25:35;8.52;;;4.05;;
74328;SDS011;62745;51.060;13.786;2024-02-26T14:28:31;9.85;;;4.97;;
74328;SDS011;62745;51.060;13.786;2024-02-26T14:31:02;11.88;;;5.13;;
74328;SDS011;62745;51.060;13.786;2024-02-26T14:36:21;10.95;;;5.28;;
74328;SDS011;62745;51.060;13.786;2024-02-26T14:38:48;7.93;;;4.72;;
74328;SDS011;62745;51.060;13.786;2024-02-26T14:41:14;10.15;;;5.10;;
74328;SDS011;62745;51.060;13.786;2024-02-26T14:43:41;11.80;;;5.10;;
74328;SDS011;62745;51.060;13.786;2024-02-26T14:46:12;7.47;;;4.15;;
74328;SDS011;62745;51.060;13.786;2024-02-26T14:48:38;10.48;;;4.53;;